Time,TemperatureF,DewpointF,PressureIn,WindDirection,WindDirectionDegrees,WindSpeedMPH,WindSpeedGustMPH,Humidity,HourlyPrecipIn,Conditions,Clouds,dailyrainin,SoftwareType,DateUTC
2013-08-03 00:00:00,66.1,62.1,30.03,SW,225,0.0,4.0,87,0.00,CLR,,0.00,WeatherDisplay:10.37,2013-08-02 14:00:00,
2013-08-03 00:10:00,66.1,62.1,30.02,SSE,163,0.0,2.0,87,0.00,CLR,,0.00,WeatherDisplay:10.37,2013-08-02 14:10:00,
2013-08-03 00:14:00,66.1,62.1,30.02,South,186,0.0,3.0,87,0.00,CLR,,0.00,WeatherDisplay:10.37,2013-08-02 14:14:00,
2013-08-03 00:20:00,66.1,62.1,30.02,SW,223,1.0,4.0,87,0.00,CLR,,0.00,WeatherDisplay:10.37,2013-08-02 14:20:00,
2013-08-03 00:25:00,66.0,62.0,30.02,SW,223,0.0,2.0,87,0.00,CLR,,0.00,WeatherDisplay:10.37,2013-08-02 14:25:00,
2013-08-03 00:30:00,66.0,62.0,30.02,SW,217,0.0,3.0,87,0.00,CLR,,0.00,WeatherDisplay:10.37,2013-08-02 14:30:00,
2013-08-03 00:35:00,65.9,62.3,30.02,SSW,210,1.0,3.0,88,0.00,CLR,,0.00,WeatherDisplay:10.37,2013-08-02 14:35:00,
2013-08-03 00:45:00,65.9,62.2,30.01,WSW,251,0.0,3.0,88,0.00,CLR,,0.00,WeatherDisplay:10.37,2013-08-02 14:45:00,
2013-08-03 00:50:00,65.9,62.2,30.01,WSW,247,0.0,2.0,88,0.00,CLR,,0.00,WeatherDisplay:10.37,2013-08-02 14:50:00,
2013-08-03 00:55:00,65.8,61.8,30.01,SW,222,0.0,3.0,87,0.00,CLR,,0.00,WeatherDisplay:10.37,2013-08-02 14:55:00,
2013-08-03 01:00:00,65.8,61.8,30.01,South,186,0.0,2.0,87,0.00,CLR,,0.00,WeatherDisplay:10.37,2013-08-02 15:00:00,
2013-08-03 01:10:00,65.7,61.7,30.01,SW,222,0.0,2.0,87,0.00,CLR,,0.00,WeatherDisplay:10.37,2013-08-02 15:10:00,
2013-08-03 01:15:00,65.7,61.7,30.00,SW,222,0.0,1.0,87,0.00,FEW,,0.00,WeatherDisplay:10.37,2013-08-02 15:15:00,
2013-08-03 01:20:00,65.6,61.6,30.01,SW,222,0.0,1.0,87,0.00,FEW,,0.00,WeatherDisplay:10.37,2013-08-02 15:20:00,
2013-08-03 01:25:00,65.4,61.5,30.00,SW,222,0.0,0.0,87,0.00,FEW,,0.00,WeatherDisplay:10.37,2013-08-02 15:25:00,
2013-08-03 01:35:00,65.1,61.1,30.00,SW,222,0.0,0.0,87,0.00,FEW,,0.00,WeatherDisplay:10.37,2013-08-02 15:35:00,
2013-08-03 01:40:00,65.0,61.0,30.00,SW,222,0.0,3.0,87,0.00,FEW,,0.00,WeatherDisplay:10.37,2013-08-02 15:40:00,
2013-08-03 01:45:00,65.1,61.5,30.00,SW,222,0.0,3.0,88,0.00,FEW,,0.00,WeatherDisplay:10.37,2013-08-02 15:45:00,
2013-08-03 01:49:00,65.1,61.4,30.00,SW,221,0.0,2.0,88,0.00,FEW,,0.00,WeatherDisplay:10.37,2013-08-02 15:49:00,
2013-08-03 01:55:00,65.1,61.4,30.00,SW,221,0.0,1.0,88,0.00,FEW,,0.00,WeatherDisplay:10.37,2013-08-02 15:55:00,
2013-08-03 02:00:00,65.0,61.4,30.00,SW,221,0.0,2.0,88,0.00,FEW,,0.00,WeatherDisplay:10.37,2013-08-02 16:00:00,
2013-08-03 02:10:00,64.9,61.2,29.99,SW,221,0.0,1.0,88,0.00,FEW,,0.00,WeatherDisplay:10.37,2013-08-02 16:10:00,
2013-08-03 02:15:00,64.8,61.2,29.99,SW,218,0.0,1.0,88,0.00,FEW,,0.00,WeatherDisplay:10.37,2013-08-02 16:15:00,
2013-08-03 02:20:00,64.9,61.3,29.99,SW,224,0.0,3.0,88,0.00,FEW,,0.00,WeatherDisplay:10.37,2013-08-02 16:20:00,
2013-08-03 02:25:00,65.0,61.4,29.99,SW,221,0.0,3.0,88,0.00,FEW,,0.00,WeatherDisplay:10.37,2013-08-02 16:25:00,
2013-08-03 02:30:00,65.1,61.5,29.99,SW,219,0.0,3.0,88,0.00,FEW,,0.00,WeatherDisplay:10.37,2013-08-02 16:30:00,
2013-08-03 02:34:00,65.1,61.5,30.00,SW,216,0.0,2.0,88,0.00,FEW,,0.00,WeatherDisplay:10.37,2013-08-02 16:34:00,
2013-08-03 02:40:00,65.2,61.6,29.99,SSW,209,0.0,1.0,88,0.00,FEW,,0.00,WeatherDisplay:10.37,2013-08-02 16:40:00,
2013-08-03 02:45:00,65.2,61.6,29.99,SSW,209,0.0,2.0,88,0.00,FEW,,0.00,WeatherDisplay:10.37,2013-08-02 16:45:00,
2013-08-03 02:50:00,65.3,61.7,29.99,SW,214,0.0,4.0,88,0.00,FEW,,0.00,WeatherDisplay:10.37,2013-08-02 16:50:00,
2013-08-03 02:55:00,65.3,61.7,29.98,SW,219,0.0,1.0,88,0.00,FEW,,0.00,WeatherDisplay:10.37,2013-08-02 16:55:00,
2013-08-03 03:00:00,65.3,61.3,29.98,SW,220,0.0,2.0,87,0.00,FEW,,0.00,WeatherDisplay:10.37,2013-08-02 17:00:00,
2013-08-03 03:10:00,65.3,61.3,29.98,SW,221,0.0,1.0,87,0.00,CLR,,0.00,WeatherDisplay:10.37,2013-08-02 17:10:00,
2013-08-03 03:15:00,65.3,61.3,29.98,SW,221,0.0,2.0,87,0.00,CLR,,0.00,WeatherDisplay:10.37,2013-08-02 17:15:00,
2013-08-03 03:20:00,65.4,61.4,29.98,SW,221,0.0,1.0,87,0.00,CLR,,0.00,WeatherDisplay:10.37,2013-08-02 17:20:00,
2013-08-03 03:25:00,65.4,61.4,29.98,SW,221,0.0,1.0,87,0.00,FEW,,0.00,WeatherDisplay:10.37,2013-08-02 17:25:00,
2013-08-03 03:30:00,65.5,61.5,29.99,SW,221,0.0,1.0,87,0.00,FEW,,0.00,WeatherDisplay:10.37,2013-08-02 17:30:00,
2013-08-03 03:35:00,65.5,61.5,29.98,SW,220,0.0,1.0,87,0.00,FEW,,0.00,WeatherDisplay:10.37,2013-08-02 17:35:00,
2013-08-03 03:40:00,65.5,61.5,29.99,SW,220,0.0,2.0,87,0.00,FEW,,0.00,WeatherDisplay:10.37,2013-08-02 17:40:00,
2013-08-03 03:50:00,65.5,61.5,29.99,SW,222,0.0,2.0,87,0.00,FEW,,0.00,WeatherDisplay:10.37,2013-08-02 17:50:00,
2013-08-03 03:55:00,65.5,61.5,29.99,SW,222,0.0,1.0,87,0.00,SCT,,0.00,WeatherDisplay:10.37,2013-08-02 17:55:00,
2013-08-03 04:00:00,65.5,61.5,29.99,SW,222,0.0,1.0,87,0.00,SCT,,0.00,WeatherDisplay:10.37,2013-08-02 18:00:00,
2013-08-03 04:10:00,65.6,61.6,29.99,SW,222,0.0,2.0,87,0.00,SCT,,0.00,WeatherDisplay:10.37,2013-08-02 18:10:00,
2013-08-03 04:15:00,65.5,61.2,29.98,SW,222,0.0,0.0,86,0.00,SCT,,0.00,WeatherDisplay:10.37,2013-08-02 18:15:00,
2013-08-03 04:20:00,65.6,61.3,29.98,SW,222,0.0,2.0,86,0.00,SCT,,0.00,WeatherDisplay:10.37,2013-08-02 18:20:00,
2013-08-03 04:25:00,65.6,61.3,29.98,SW,222,0.0,2.0,86,0.00,SCT,,0.00,WeatherDisplay:10.37,2013-08-02 18:25:00,
2013-08-03 04:30:00,65.6,61.3,29.99,SW,221,0.0,2.0,86,0.00,SCT,,0.00,WeatherDisplay:10.37,2013-08-02 18:30:00,
2013-08-03 04:35:00,65.7,61.4,29.98,SW,221,0.0,3.0,86,0.00,SCT,,0.00,WeatherDisplay:10.37,2013-08-02 18:35:00,
2013-08-03 04:39:00,65.7,61.4,29.98,SW,222,0.0,2.0,86,0.00,SCT,,0.00,WeatherDisplay:10.37,2013-08-02 18:39:00,
2013-08-03 04:45:00,65.7,61.4,29.99,SW,222,0.0,2.0,86,0.00,SCT,,0.00,WeatherDisplay:10.37,2013-08-02 18:45:00,
2013-08-03 04:50:00,65.7,61.4,29.99,SW,222,0.0,1.0,86,0.00,SCT,,0.00,WeatherDisplay:10.37,2013-08-02 18:50:00,
2013-08-03 04:55:00,65.8,61.5,29.99,SW,222,1.0,3.0,86,0.00,SCT,,0.00,WeatherDisplay:10.37,2013-08-02 18:55:00,
2013-08-03 05:00:00,65.9,61.6,29.99,SW,222,1.0,2.0,86,0.00,SCT,,0.00,WeatherDisplay:10.37,2013-08-02 19:00:00,
2013-08-03 05:10:00,66.0,61.7,29.99,SW,222,0.0,2.0,86,0.00,BKN,,0.00,WeatherDisplay:10.37,2013-08-02 19:10:00,
2013-08-03 05:15:00,66.0,61.7,29.99,SW,221,0.0,2.0,86,0.00,BKN,,0.00,WeatherDisplay:10.37,2013-08-02 19:15:00,
2013-08-03 05:20:00,65.9,61.6,29.99,SW,220,0.0,2.0,86,0.00,BKN,,0.00,WeatherDisplay:10.37,2013-08-02 19:20:00,
2013-08-03 05:25:00,65.8,61.2,29.99,SSW,211,1.0,6.0,85,0.00,BKN,,0.00,WeatherDisplay:10.37,2013-08-02 19:25:00,
2013-08-03 05:29:00,65.6,61.3,29.99,South,184,1.0,3.0,86,0.00,BKN,,0.00,WeatherDisplay:10.37,2013-08-02 19:29:00,
2013-08-03 05:35:00,65.5,61.2,30.00,South,173,1.0,2.0,86,0.00,BKN,,0.00,WeatherDisplay:10.37,2013-08-02 19:35:00,
2013-08-03 05:40:00,65.3,61.1,30.00,South,181,0.0,2.0,86,0.00,BKN,,0.00,WeatherDisplay:10.37,2013-08-02 19:40:00,
2013-08-03 05:45:00,65.2,60.9,30.00,South,185,0.0,2.0,86,0.00,BKN,,0.00,WeatherDisplay:10.37,2013-08-02 19:45:00,
2013-08-03 05:50:00,65.1,60.8,30.00,South,185,0.0,1.0,86,0.00,BKN,,0.00,WeatherDisplay:10.37,2013-08-02 19:50:00,
2013-08-03 05:55:00,65.0,61.0,30.00,South,188,0.0,3.0,87,0.00,BKN,,0.00,WeatherDisplay:10.37,2013-08-02 19:55:00,
2013-08-03 05:59:00,65.0,61.0,30.00,SSW,196,0.0,1.0,87,0.00,BKN,,0.00,WeatherDisplay:10.37,2013-08-02 19:59:00,
2013-08-03 06:04:00,65.0,61.0,30.01,SSW,198,0.0,2.0,87,0.00,SCT,,0.00,WeatherDisplay:10.37,2013-08-02 20:04:00,
2013-08-03 06:15:00,64.9,60.9,30.01,SSW,202,0.0,4.0,87,0.00,SCT,,0.00,WeatherDisplay:10.37,2013-08-02 20:15:00,
2013-08-03 06:20:00,64.8,60.8,30.01,SSW,199,0.0,3.0,87,0.00,SCT,,0.00,WeatherDisplay:10.37,2013-08-02 20:20:00,
2013-08-03 06:25:00,64.7,60.7,30.01,SSW,194,0.0,2.0,87,0.00,FEW,,0.00,WeatherDisplay:10.37,2013-08-02 20:25:00,
2013-08-03 06:29:00,64.5,60.5,30.01,SSW,201,1.0,3.0,87,0.00,FEW,,0.00,WeatherDisplay:10.37,2013-08-02 20:29:00,
2013-08-03 06:35:00,64.3,60.4,30.01,SW,215,0.0,2.0,87,0.00,FEW,,0.00,WeatherDisplay:10.37,2013-08-02 20:35:00,
2013-08-03 06:40:00,64.2,60.2,30.01,SW,221,0.0,2.0,87,0.00,FEW,,0.00,WeatherDisplay:10.37,2013-08-02 20:40:00,
2013-08-03 06:45:00,64.2,60.2,30.02,SW,222,0.0,1.0,87,0.00,FEW,,0.00,WeatherDisplay:10.37,2013-08-02 20:45:00,
2013-08-03 06:50:00,64.1,60.5,30.02,SSW,208,0.0,3.0,88,0.00,FEW,,0.00,WeatherDisplay:10.37,2013-08-02 20:50:00,
2013-08-03 06:55:00,64.2,60.6,30.02,SSW,207,0.0,4.0,88,0.00,FEW,,0.00,WeatherDisplay:10.37,2013-08-02 20:55:00,
2013-08-03 07:00:00,64.3,60.7,30.02,SW,222,0.0,3.0,88,0.00,FEW,,0.00,WeatherDisplay:10.37,2013-08-02 21:00:00,
2013-08-03 07:10:00,64.5,60.9,30.02,SW,224,1.0,2.0,88,0.00,FEW,,0.00,WeatherDisplay:10.37,2013-08-02 21:10:00,
2013-08-03 07:15:00,64.7,61.1,30.03,SW,223,0.0,2.0,88,0.00,FEW,,0.00,WeatherDisplay:10.37,2013-08-02 21:15:00,
2013-08-03 07:19:00,64.9,60.9,30.03,SW,218,1.0,3.0,87,0.00,FEW,,0.00,WeatherDisplay:10.37,2013-08-02 21:19:00,
2013-08-03 07:25:00,65.1,61.1,30.03,SSW,209,1.0,3.0,87,0.00,FEW,,0.00,WeatherDisplay:10.37,2013-08-02 21:25:00,
2013-08-03 07:30:00,65.4,61.4,30.03,SW,215,0.0,4.0,87,0.00,FEW,,0.00,WeatherDisplay:10.37,2013-08-02 21:30:00,
2013-08-03 07:35:00,65.7,61.7,30.03,SW,225,0.0,2.0,87,0.00,FEW,,0.00,WeatherDisplay:10.37,2013-08-02 21:35:00,
2013-08-03 07:40:00,66.1,62.1,30.04,SW,227,0.0,1.0,87,0.00,FEW,,0.00,WeatherDisplay:10.37,2013-08-02 21:40:00,
2013-08-03 07:45:00,66.5,62.5,30.04,SW,227,1.0,2.0,87,0.00,FEW,,0.00,WeatherDisplay:10.37,2013-08-02 21:45:00,
2013-08-03 07:50:00,66.9,62.6,30.04,SW,228,0.0,2.0,86,0.00,FEW,,0.00,WeatherDisplay:10.37,2013-08-02 21:50:00,
2013-08-03 07:55:00,67.4,62.7,30.04,SW,228,0.0,2.0,85,0.00,FEW,,0.00,WeatherDisplay:10.37,2013-08-02 21:55:00,
2013-08-03 08:00:00,67.9,63.2,30.04,SW,232,1.0,4.0,85,0.00,FEW,,0.00,WeatherDisplay:10.37,2013-08-02 22:00:00,
2013-08-03 08:10:00,68.8,63.4,30.05,WSW,237,1.0,3.0,83,0.00,FEW,,0.00,WeatherDisplay:10.37,2013-08-02 22:10:00,
2013-08-03 08:15:00,69.2,63.8,30.05,SW,230,1.0,4.0,83,0.00,FEW,,0.00,WeatherDisplay:10.37,2013-08-02 22:15:00,
2013-08-03 08:20:00,69.5,63.8,30.05,SW,225,1.0,4.0,82,0.00,FEW,,0.00,WeatherDisplay:10.37,2013-08-02 22:20:00,
2013-08-03 08:25:00,69.9,63.8,30.05,SW,233,0.0,4.0,81,0.00,FEW,,0.00,WeatherDisplay:10.37,2013-08-02 22:25:00,
2013-08-03 08:30:00,70.2,64.1,30.05,WSW,243,2.0,3.0,81,0.00,FEW,,0.00,WeatherDisplay:10.37,2013-08-02 22:30:00,
2013-08-03 08:35:00,70.4,63.9,30.06,SW,215,1.0,3.0,80,0.00,FEW,,0.00,WeatherDisplay:10.37,2013-08-02 22:35:00,
2013-08-03 08:40:00,70.7,64.2,30.06,South,188,1.0,4.0,80,0.00,FEW,,0.00,WeatherDisplay:10.37,2013-08-02 22:40:00,
2013-08-03 08:45:00,71.1,64.3,30.06,SSE,165,2.0,4.0,79,0.00,FEW,,0.00,WeatherDisplay:10.37,2013-08-02 22:45:00,
2013-08-03 08:50:00,71.5,64.3,30.06,SSE,160,1.0,3.0,78,0.00,FEW,,0.00,WeatherDisplay:10.37,2013-08-02 22:50:00,
2013-08-03 08:55:00,71.7,64.5,30.06,SSW,202,1.0,4.0,78,0.00,FEW,,0.00,WeatherDisplay:10.37,2013-08-02 22:55:00,
2013-08-03 09:00:00,72.2,65.0,30.06,SSW,213,1.0,3.0,78,0.00,FEW,,0.00,WeatherDisplay:10.37,2013-08-02 23:00:00,
2013-08-03 09:09:00,72.9,65.3,30.06,SW,227,1.0,5.0,77,0.00,FEW,,0.00,WeatherDisplay:10.37,2013-08-02 23:09:00,
2013-08-03 09:15:00,73.2,65.2,30.06,SW,235,1.0,5.0,76,0.00,FEW,,0.00,WeatherDisplay:10.37,2013-08-02 23:15:00,
2013-08-03 09:19:00,73.7,65.6,30.06,SW,232,0.0,3.0,76,0.00,FEW,,0.00,WeatherDisplay:10.37,2013-08-02 23:19:00,
2013-08-03 09:25:00,73.9,65.5,30.06,WSW,239,1.0,4.0,75,0.00,FEW,,0.00,WeatherDisplay:10.37,2013-08-02 23:25:00,
2013-08-03 09:30:00,74.4,65.9,30.07,SSW,211,2.0,5.0,75,0.00,FEW,,0.00,WeatherDisplay:10.37,2013-08-02 23:30:00,
2013-08-03 09:35:00,74.7,65.9,30.06,SSW,210,0.0,6.0,74,0.00,FEW,,0.00,WeatherDisplay:10.37,2013-08-02 23:35:00,
2013-08-03 09:45:00,75.7,66.0,30.07,SW,215,1.0,9.0,72,0.00,FEW,,0.00,WeatherDisplay:10.37,2013-08-02 23:45:00,
2013-08-03 09:49:00,76.2,66.1,30.07,SW,224,2.0,7.0,71,0.00,FEW,,0.00,WeatherDisplay:10.37,2013-08-02 23:49:00,
2013-08-03 09:55:00,76.8,66.7,30.07,SW,227,1.0,7.0,71,0.00,FEW,,0.00,WeatherDisplay:10.37,2013-08-02 23:55:00,
2013-08-03 10:00:00,77.0,66.4,30.07,South,190,1.0,7.0,70,0.00,FEW,,0.00,WeatherDisplay:10.37,2013-08-03 00:00:00,
2013-08-03 10:15:00,76.7,66.5,30.06,SW,219,0.0,4.0,71,0.00,FEW,,0.00,WeatherDisplay:10.37,2013-08-03 00:15:00,
2013-08-03 10:20:00,76.0,67.1,30.06,SW,234,0.0,5.0,74,0.00,FEW,,0.00,WeatherDisplay:10.37,2013-08-03 00:20:00,
2013-08-03 10:25:00,75.4,67.0,30.06,SW,231,0.0,2.0,75,0.00,FEW,,0.00,WeatherDisplay:10.37,2013-08-03 00:25:00,
2013-08-03 10:30:00,75.2,66.7,30.06,SSW,201,2.0,6.0,75,0.00,FEW,,0.00,WeatherDisplay:10.37,2013-08-03 00:30:00,
2013-08-03 10:34:00,74.9,66.1,30.06,SW,215,1.0,6.0,74,0.00,SCT,,0.00,WeatherDisplay:10.37,2013-08-03 00:34:00,
2013-08-03 10:39:00,75.0,66.2,30.06,SSW,202,0.0,5.0,74,0.00,SCT,,0.00,WeatherDisplay:10.37,2013-08-03 00:39:00,
2013-08-03 10:50:00,75.5,66.2,30.05,South,178,2.0,5.0,73,0.00,SCT,,0.00,WeatherDisplay:10.37,2013-08-03 00:50:00,
2013-08-03 10:55:00,75.7,66.4,30.05,SSW,199,2.0,4.0,73,0.00,SCT,,0.00,WeatherDisplay:10.37,2013-08-03 00:55:00,
2013-08-03 11:00:00,75.7,66.8,30.05,SSE,160,1.0,4.0,74,0.00,SCT,,0.00,WeatherDisplay:10.37,2013-08-03 01:00:00,
2013-08-03 11:10:00,75.6,66.7,30.05,SSE,161,2.0,4.0,74,0.00,SCT,,0.00,WeatherDisplay:10.37,2013-08-03 01:10:00,
2013-08-03 11:15:00,75.9,67.0,30.05,South,172,0.0,3.0,74,0.00,SCT,,0.00,WeatherDisplay:10.37,2013-08-03 01:15:00,
2013-08-03 11:19:00,76.9,67.6,30.05,SSE,165,1.0,6.0,73,0.00,SCT,,0.00,WeatherDisplay:10.37,2013-08-03 01:19:00,
2013-08-03 11:24:00,77.9,67.7,30.05,SE,130,2.0,10.0,71,0.00,SCT,,0.00,WeatherDisplay:10.37,2013-08-03 01:24:00,
2013-08-03 11:30:00,78.1,68.4,30.05,SSE,162,1.0,8.0,72,0.00,SCT,,0.00,WeatherDisplay:10.37,2013-08-03 01:30:00,
2013-08-03 11:35:00,78.6,68.4,30.04,South,179,2.0,9.0,71,0.00,SCT,,0.00,WeatherDisplay:10.37,2013-08-03 01:35:00,
2013-08-03 11:40:00,78.5,67.9,30.04,SSW,198,2.0,10.0,70,0.00,SCT,,0.00,WeatherDisplay:10.37,2013-08-03 01:40:00,
2013-08-03 11:45:00,78.0,67.0,30.04,SW,225,2.0,10.0,69,0.00,SCT,,0.00,WeatherDisplay:10.37,2013-08-03 01:45:00,
2013-08-03 11:55:00,78.3,67.2,30.04,South,186,1.0,5.0,69,0.00,SCT,,0.00,WeatherDisplay:10.37,2013-08-03 01:55:00,
2013-08-03 12:00:00,78.4,67.4,30.03,SSE,154,1.0,4.0,69,0.00,SCT,,0.00,WeatherDisplay:10.37,2013-08-03 02:00:00,
2013-08-03 12:05:00,78.3,67.7,30.03,South,178,1.0,9.0,70,0.00,SCT,,0.00,WeatherDisplay:10.37,2013-08-03 02:05:00,
2013-08-03 12:10:00,77.9,67.3,30.03,SSW,192,3.0,10.0,70,0.00,SCT,,0.00,WeatherDisplay:10.37,2013-08-03 02:10:00,
2013-08-03 12:14:00,77.9,67.7,30.03,SSW,211,1.0,6.0,71,0.00,SCT,,0.00,WeatherDisplay:10.37,2013-08-03 02:14:00,
2013-08-03 12:20:00,78.3,67.7,30.02,SSW,211,2.0,5.0,70,0.00,SCT,,0.00,WeatherDisplay:10.37,2013-08-03 02:20:00,
2013-08-03 12:25:00,78.9,68.3,30.02,South,188,2.0,6.0,70,0.00,SCT,,0.00,WeatherDisplay:10.37,2013-08-03 02:25:00,
2013-08-03 12:29:00,79.3,68.3,30.02,South,185,0.0,6.0,69,0.00,SCT,,0.00,WeatherDisplay:10.37,2013-08-03 02:29:00,
2013-08-03 12:35:00,79.7,68.2,30.02,SW,214,2.0,8.0,68,0.00,SCT,,0.00,WeatherDisplay:10.37,2013-08-03 02:35:00,
2013-08-03 12:40:00,79.9,68.4,30.02,SSE,161,2.0,9.0,68,0.00,SCT,,0.00,WeatherDisplay:10.37,2013-08-03 02:40:00,
2013-08-03 12:45:00,79.7,69.1,30.02,ESE,117,2.0,12.0,70,0.00,SCT,,0.00,WeatherDisplay:10.37,2013-08-03 02:45:00,
2013-08-03 12:50:00,78.1,68.8,30.02,ESE,111,1.0,7.0,73,0.00,SCT,,0.00,WeatherDisplay:10.37,2013-08-03 02:50:00,
2013-08-03 12:59:00,76.5,67.6,30.02,SE,140,3.0,9.0,74,0.00,SCT,,0.00,WeatherDisplay:10.37,2013-08-03 02:59:00,
2013-08-03 13:10:00,78.0,68.3,30.01,SE,138,0.0,9.0,72,0.00,SCT,,0.00,WeatherDisplay:10.37,2013-08-03 03:10:00,
2013-08-03 13:15:00,78.3,67.7,30.01,SE,130,3.0,7.0,70,0.00,SCT,,0.00,WeatherDisplay:10.37,2013-08-03 03:15:00,
2013-08-03 13:20:00,77.8,67.7,30.01,SE,142,1.0,7.0,71,0.00,SCT,,0.00,WeatherDisplay:10.37,2013-08-03 03:20:00,
2013-08-03 13:25:00,77.3,67.6,30.00,SSE,155,1.0,9.0,72,0.00,BKN,,0.00,WeatherDisplay:10.37,2013-08-03 03:25:00,
2013-08-03 13:29:00,76.9,66.8,30.00,SSE,149,2.0,12.0,71,0.00,BKN,,0.00,WeatherDisplay:10.37,2013-08-03 03:29:00,
2013-08-03 13:35:00,76.4,66.3,30.00,SE,130,5.0,15.0,71,0.00,BKN,,0.00,WeatherDisplay:10.37,2013-08-03 03:35:00,
2013-08-03 13:40:00,75.9,66.2,30.00,SE,124,0.0,8.0,72,0.00,BKN,,0.00,WeatherDisplay:10.37,2013-08-03 03:40:00,
2013-08-03 13:45:00,75.8,66.6,30.00,ESE,109,2.0,7.0,73,0.00,BKN,,0.00,WeatherDisplay:10.37,2013-08-03 03:45:00,
2013-08-03 13:50:00,75.7,66.4,30.00,SE,128,0.0,4.0,73,0.00,BKN,,0.00,WeatherDisplay:10.37,2013-08-03 03:50:00,
2013-08-03 13:55:00,75.5,65.8,29.99,SE,131,1.0,5.0,72,0.00,BKN,,0.00,WeatherDisplay:10.37,2013-08-03 03:55:00,
2013-08-03 14:00:00,75.4,65.8,29.99,SE,139,2.0,9.0,72,0.00,BKN,,0.00,WeatherDisplay:10.37,2013-08-03 04:00:00,
2013-08-03 14:05:00,75.4,65.7,29.99,SE,131,1.0,6.0,72,0.00,BKN,,0.00,WeatherDisplay:10.37,2013-08-03 04:05:00,
2013-08-03 14:10:00,75.6,66.3,29.99,ESE,120,1.0,5.0,73,0.00,BKN,,0.00,WeatherDisplay:10.37,2013-08-03 04:10:00,
2013-08-03 14:14:00,75.7,66.0,29.99,SE,125,1.0,3.0,72,0.00,BKN,,0.00,WeatherDisplay:10.37,2013-08-03 04:14:00,
2013-08-03 14:20:00,76.0,66.7,29.99,ESE,113,0.0,2.0,73,0.00,BKN,,0.00,WeatherDisplay:10.37,2013-08-03 04:20:00,
2013-08-03 14:25:00,76.4,66.3,29.99,ESE,123,1.0,5.0,71,0.00,BKN,,0.00,WeatherDisplay:10.37,2013-08-03 04:25:00,
2013-08-03 14:30:00,76.2,66.9,29.99,South,182,2.0,7.0,73,0.00,BKN,,0.00,WeatherDisplay:10.37,2013-08-03 04:30:00,
2013-08-03 14:35:00,74.9,66.1,29.99,SSW,202,2.0,12.0,74,0.00,BKN,,0.00,WeatherDisplay:10.37,2013-08-03 04:35:00,
2013-08-03 14:40:00,74.2,66.1,29.99,SW,214,1.0,3.0,76,0.00,BKN,,0.00,WeatherDisplay:10.37,2013-08-03 04:40:00,
2013-08-03 14:45:00,73.8,66.1,29.99,SW,217,0.0,5.0,77,0.00,BKN,,0.00,WeatherDisplay:10.37,2013-08-03 04:45:00,
2013-08-03 14:50:00,73.9,66.6,29.99,South,186,2.0,7.0,78,0.00,BKN,,0.00,WeatherDisplay:10.37,2013-08-03 04:50:00,
2013-08-03 14:54:00,74.2,66.9,29.99,SSW,194,2.0,6.0,78,0.00,BKN,,0.00,WeatherDisplay:10.37,2013-08-03 04:54:00,
2013-08-03 14:59:00,74.3,66.6,29.99,SSW,195,2.0,5.0,77,0.00,BKN,,0.00,WeatherDisplay:10.37,2013-08-03 04:59:00,
2013-08-03 15:09:00,74.3,67.0,29.99,SW,231,0.0,3.0,78,0.00,BKN,,0.00,WeatherDisplay:10.37,2013-08-03 05:09:00,
2013-08-03 15:15:00,74.5,67.2,29.99,SW,233,1.0,4.0,78,0.00,BKN,,0.00,WeatherDisplay:10.37,2013-08-03 05:15:00,
2013-08-03 15:25:00,75.3,67.2,29.98,SSE,156,3.0,7.0,76,0.00,BKN,,0.00,WeatherDisplay:10.37,2013-08-03 05:25:00,
2013-08-03 15:30:00,75.5,67.0,29.98,South,173,0.0,5.0,75,0.00,BKN,,0.00,WeatherDisplay:10.37,2013-08-03 05:30:00,
2013-08-03 15:35:00,75.4,67.0,29.99,South,185,1.0,6.0,75,0.00,BKN,,0.00,WeatherDisplay:10.37,2013-08-03 05:35:00,
2013-08-03 15:40:00,75.1,67.0,29.99,South,177,1.0,6.0,76,0.00,BKN,,0.00,WeatherDisplay:10.37,2013-08-03 05:40:00,
2013-08-03 15:45:00,74.6,66.6,29.99,South,190,1.0,5.0,76,0.00,BKN,,0.00,WeatherDisplay:10.37,2013-08-03 05:45:00,
2013-08-03 15:50:00,73.7,66.4,29.99,SSW,200,0.0,6.0,78,0.00,BKN,,0.00,WeatherDisplay:10.37,2013-08-03 05:50:00,
2013-08-03 15:54:00,72.9,66.4,29.99,SSW,210,0.0,2.0,80,0.00,BKN,,0.00,WeatherDisplay:10.37,2013-08-03 05:54:00,
2013-08-03 15:59:00,72.2,66.0,29.99,SW,223,1.0,4.0,81,0.00,BKN,,0.00,WeatherDisplay:10.37,2013-08-03 05:59:00,
2013-08-03 16:04:00,71.7,65.9,29.99,SSW,211,0.0,4.0,82,0.00,BKN,,0.00,WeatherDisplay:10.37,2013-08-03 06:04:00,
2013-08-03 16:15:00,71.5,65.7,29.99,SSE,163,1.0,6.0,82,0.00,BKN,,0.00,WeatherDisplay:10.37,2013-08-03 06:15:00,
2013-08-03 16:20:00,71.5,65.3,29.99,South,186,0.0,6.0,81,0.00,BKN,,0.00,WeatherDisplay:10.37,2013-08-03 06:20:00,
2013-08-03 16:25:00,71.7,65.6,29.99,SW,215,1.0,4.0,81,0.00,BKN,,0.00,WeatherDisplay:10.37,2013-08-03 06:25:00,
2013-08-03 16:30:00,71.9,65.7,29.99,SW,220,1.0,4.0,81,0.00,BKN,,0.00,WeatherDisplay:10.37,2013-08-03 06:30:00,
2013-08-03 16:35:00,72.0,65.5,29.99,SSW,202,0.0,5.0,80,0.00,BKN,,0.00,WeatherDisplay:10.37,2013-08-03 06:35:00,
2013-08-03 16:40:00,72.0,65.1,29.99,SSW,194,1.0,7.0,79,0.00,BKN,,0.00,WeatherDisplay:10.37,2013-08-03 06:40:00,
2013-08-03 16:45:00,72.0,65.1,29.99,SSW,211,1.0,3.0,79,0.00,BKN,,0.00,WeatherDisplay:10.37,2013-08-03 06:45:00,
2013-08-03 16:50:00,72.1,65.2,30.00,South,189,0.0,5.0,79,0.00,BKN,,0.00,WeatherDisplay:10.37,2013-08-03 06:50:00,
2013-08-03 16:55:00,72.2,65.3,30.00,South,174,0.0,3.0,79,0.00,BKN,,0.00,WeatherDisplay:10.37,2013-08-03 06:55:00,
2013-08-03 17:00:00,72.2,65.3,30.00,SSW,210,0.0,3.0,79,0.00,BKN,,0.00,WeatherDisplay:10.37,2013-08-03 07:00:00,
2013-08-03 17:10:00,72.1,64.9,30.00,SSE,158,1.0,4.0,78,0.00,BKN,,0.00,WeatherDisplay:10.37,2013-08-03 07:10:00,
2013-08-03 17:20:00,72.0,64.8,30.00,South,175,0.0,4.0,78,0.00,BKN,,0.00,WeatherDisplay:10.37,2013-08-03 07:20:00,
2013-08-03 17:25:00,71.9,64.6,30.00,South,174,0.0,4.0,78,0.00,BKN,,0.00,WeatherDisplay:10.37,2013-08-03 07:25:00,
2013-08-03 17:29:00,71.7,64.5,30.00,SSE,157,1.0,6.0,78,0.00,BKN,,0.00,WeatherDisplay:10.37,2013-08-03 07:29:00,
2013-08-03 17:34:00,71.6,64.3,30.01,SE,136,0.0,3.0,78,0.00,BKN,,0.00,WeatherDisplay:10.37,2013-08-03 07:34:00,
2013-08-03 17:40:00,71.4,64.5,30.01,SE,146,0.0,3.0,79,0.00,BKN,,0.00,WeatherDisplay:10.37,2013-08-03 07:40:00,
2013-08-03 17:45:00,71.2,64.4,30.01,South,172,0.0,1.0,79,0.00,BKN,,0.00,WeatherDisplay:10.37,2013-08-03 07:45:00,
2013-08-03 17:50:00,71.1,64.3,30.01,South,186,0.0,2.0,79,0.00,BKN,,0.00,WeatherDisplay:10.37,2013-08-03 07:50:00,
2013-08-03 17:55:00,70.9,64.1,30.01,SSW,196,0.0,2.0,79,0.00,BKN,,0.00,WeatherDisplay:10.37,2013-08-03 07:55:00,
2013-08-03 18:00:00,70.8,63.9,30.01,SW,219,0.0,3.0,79,0.00,BKN,,0.00,WeatherDisplay:10.37,2013-08-03 08:00:00,
2013-08-03 18:10:00,70.5,63.7,30.01,SW,221,0.0,2.0,79,0.00,BKN,,0.00,WeatherDisplay:10.37,2013-08-03 08:10:00,
2013-08-03 18:15:00,70.5,63.6,30.01,SW,219,0.0,1.0,79,0.00,BKN,,0.00,WeatherDisplay:10.37,2013-08-03 08:15:00,
2013-08-03 18:20:00,70.3,63.5,30.01,SW,219,0.0,3.0,79,0.00,BKN,,0.00,WeatherDisplay:10.37,2013-08-03 08:20:00,
2013-08-03 18:25:00,70.2,63.3,30.01,SW,220,0.0,3.0,79,0.00,SCT,,0.00,WeatherDisplay:10.37,2013-08-03 08:25:00,
2013-08-03 18:30:00,70.0,63.5,30.01,SW,220,0.0,0.0,80,0.00,SCT,,0.00,WeatherDisplay:10.37,2013-08-03 08:30:00,
2013-08-03 18:34:00,69.8,63.3,30.01,SW,220,0.0,1.0,80,0.00,SCT,,0.00,WeatherDisplay:10.37,2013-08-03 08:34:00,
2013-08-03 18:40:00,69.5,63.1,30.02,SW,221,0.0,1.0,80,0.00,SCT,,0.00,WeatherDisplay:10.37,2013-08-03 08:40:00,
2013-08-03 18:45:00,69.4,63.0,30.02,SW,222,0.0,1.0,80,0.00,SCT,,0.00,WeatherDisplay:10.37,2013-08-03 08:45:00,
2013-08-03 18:50:00,69.3,62.9,30.01,SW,223,0.0,1.0,80,0.00,SCT,,0.00,WeatherDisplay:10.37,2013-08-03 08:50:00,
2013-08-03 18:54:00,69.1,62.7,30.02,SW,223,0.0,1.0,80,0.00,SCT,,0.00,WeatherDisplay:10.37,2013-08-03 08:54:00,
2013-08-03 19:00:00,68.9,62.5,30.02,SW,223,0.0,2.0,80,0.00,SCT,,0.00,WeatherDisplay:10.37,2013-08-03 09:00:00,
2013-08-03 19:10:00,68.5,62.4,30.02,SW,223,0.0,0.0,81,0.00,SCT,,0.00,WeatherDisplay:10.37,2013-08-03 09:10:00,
2013-08-03 19:15:00,68.2,62.1,30.02,SW,223,0.0,1.0,81,0.00,SCT,,0.00,WeatherDisplay:10.37,2013-08-03 09:15:00,
2013-08-03 19:20:00,67.9,62.2,30.02,SW,223,0.0,0.0,82,0.00,SCT,,0.00,WeatherDisplay:10.37,2013-08-03 09:20:00,
2013-08-03 19:30:00,67.4,62.0,30.03,SW,223,0.0,0.0,83,0.00,SCT,,0.00,WeatherDisplay:10.37,2013-08-03 09:30:00,
2013-08-03 19:35:00,67.2,61.8,30.03,SW,223,0.0,0.0,83,0.00,SCT,,0.00,WeatherDisplay:10.37,2013-08-03 09:35:00,
2013-08-03 19:40:00,67.0,61.6,30.03,SW,223,0.0,0.0,83,0.00,SCT,,0.00,WeatherDisplay:10.37,2013-08-03 09:40:00,
2013-08-03 19:45:00,66.8,61.8,30.03,SW,223,0.0,0.0,84,0.00,SCT,,0.00,WeatherDisplay:10.37,2013-08-03 09:45:00,
2013-08-03 19:50:00,66.6,61.6,30.03,SW,223,0.0,0.0,84,0.00,SCT,,0.00,WeatherDisplay:10.37,2013-08-03 09:50:00,
2013-08-03 19:55:00,66.3,61.3,30.03,SW,223,0.0,0.0,84,0.00,SCT,,0.00,WeatherDisplay:10.37,2013-08-03 09:55:00,
2013-08-03 20:00:00,66.1,61.4,30.03,SW,223,0.0,0.0,85,0.00,SCT,,0.00,WeatherDisplay:10.37,2013-08-03 10:00:00,
2013-08-03 20:05:00,65.9,61.3,30.04,SW,223,0.0,2.0,85,0.00,FEW,,0.00,WeatherDisplay:10.37,2013-08-03 10:05:00,
2013-08-03 20:10:00,65.9,61.3,30.04,SW,223,0.0,1.0,85,0.00,FEW,,0.00,WeatherDisplay:10.37,2013-08-03 10:10:00,
2013-08-03 20:15:00,66.2,61.9,30.04,SSW,212,0.0,2.0,86,0.00,FEW,,0.00,WeatherDisplay:10.37,2013-08-03 10:15:00,
2013-08-03 20:20:00,66.3,62.0,30.04,SSW,199,0.0,1.0,86,0.00,FEW,,0.00,WeatherDisplay:10.37,2013-08-03 10:20:00,
2013-08-03 20:24:00,66.6,62.2,30.05,SSW,198,0.0,2.0,86,0.00,FEW,,0.00,WeatherDisplay:10.37,2013-08-03 10:24:00,
2013-08-03 20:35:00,66.9,62.6,30.04,SW,223,0.0,2.0,86,0.00,FEW,,0.00,WeatherDisplay:10.37,2013-08-03 10:35:00,
2013-08-03 20:40:00,66.9,62.6,30.05,WSW,238,0.0,1.0,86,0.00,FEW,,0.00,WeatherDisplay:10.37,2013-08-03 10:40:00,
2013-08-03 20:45:00,66.9,62.6,30.05,WSW,238,0.0,0.0,86,0.00,FEW,,0.00,WeatherDisplay:10.37,2013-08-03 10:45:00,
2013-08-03 20:49:00,66.8,62.5,30.05,WSW,238,0.0,0.0,86,0.00,FEW,,0.00,WeatherDisplay:10.37,2013-08-03 10:49:00,
2013-08-03 20:55:00,66.7,62.3,30.05,WSW,238,0.0,0.0,86,0.00,FEW,,0.00,WeatherDisplay:10.37,2013-08-03 10:55:00,
2013-08-03 21:00:00,66.5,62.5,30.05,WSW,238,0.0,2.0,87,0.00,FEW,,0.00,WeatherDisplay:10.37,2013-08-03 11:00:00,
2013-08-03 21:10:00,66.5,62.5,30.05,SW,227,0.0,2.0,87,0.00,FEW,,0.00,WeatherDisplay:10.37,2013-08-03 11:10:00,
2013-08-03 21:15:00,66.4,62.4,30.05,SW,214,0.0,1.0,87,0.00,FEW,,0.00,WeatherDisplay:10.37,2013-08-03 11:15:00,
2013-08-03 21:19:00,66.4,62.4,30.05,SSW,210,0.0,1.0,87,0.00,FEW,,0.00,WeatherDisplay:10.37,2013-08-03 11:19:00,
2013-08-03 21:24:00,66.4,62.4,30.05,SSW,199,0.0,2.0,87,0.00,FEW,,0.00,WeatherDisplay:10.37,2013-08-03 11:24:00,
2013-08-03 21:30:00,66.4,62.4,30.05,SSW,212,0.0,3.0,87,0.00,FEW,,0.00,WeatherDisplay:10.37,2013-08-03 11:30:00,
2013-08-03 21:40:00,66.2,62.2,30.05,SW,232,0.0,2.0,87,0.00,CLR,,0.00,WeatherDisplay:10.37,2013-08-03 11:40:00,
2013-08-03 21:45:00,66.1,62.1,30.05,SW,230,0.0,4.0,87,0.00,CLR,,0.00,WeatherDisplay:10.37,2013-08-03 11:45:00,
2013-08-03 21:50:00,66.1,62.4,30.05,SW,230,0.0,1.0,88,0.00,CLR,,0.00,WeatherDisplay:10.37,2013-08-03 11:50:00,
2013-08-03 21:55:00,66.0,62.3,30.05,SW,222,0.0,2.0,88,0.00,CLR,,0.00,WeatherDisplay:10.37,2013-08-03 11:55:00,
2013-08-03 22:00:00,65.9,62.2,30.05,SW,214,0.0,1.0,88,0.00,CLR,,0.00,WeatherDisplay:10.37,2013-08-03 12:00:00,
2013-08-03 22:10:00,65.8,62.1,30.05,SSW,201,0.0,3.0,88,0.00,CLR,,0.00,WeatherDisplay:10.37,2013-08-03 12:10:00,
2013-08-03 22:15:00,65.8,62.1,30.05,SSW,194,1.0,2.0,88,0.00,CLR,,0.00,WeatherDisplay:10.37,2013-08-03 12:15:00,
2013-08-03 22:20:00,65.8,62.1,30.05,South,185,2.0,5.0,88,0.00,CLR,,0.00,WeatherDisplay:10.37,2013-08-03 12:20:00,
2013-08-03 22:25:00,65.8,62.1,30.05,South,190,0.0,3.0,88,0.00,CLR,,0.00,WeatherDisplay:10.37,2013-08-03 12:25:00,
2013-08-03 22:30:00,65.7,62.0,30.05,SSW,195,0.0,4.0,88,0.00,CLR,,0.00,WeatherDisplay:10.37,2013-08-03 12:30:00,
2013-08-03 22:35:00,65.6,61.9,30.05,SSW,203,0.0,4.0,88,0.00,CLR,,0.00,WeatherDisplay:10.37,2013-08-03 12:35:00,
2013-08-03 22:45:00,65.4,61.7,30.05,SSW,207,0.0,3.0,88,0.00,CLR,,0.00,WeatherDisplay:10.37,2013-08-03 12:45:00,
2013-08-03 22:50:00,65.2,61.6,30.05,SSW,213,1.0,3.0,88,0.00,CLR,,0.00,WeatherDisplay:10.37,2013-08-03 12:50:00,
2013-08-03 22:55:00,65.2,61.5,30.05,SW,217,1.0,3.0,88,0.00,CLR,,0.00,WeatherDisplay:10.37,2013-08-03 12:55:00,
2013-08-03 23:00:00,65.1,61.5,30.05,SW,225,1.0,5.0,88,0.00,CLR,,0.00,WeatherDisplay:10.37,2013-08-03 13:00:00,
2013-08-03 23:10:00,65.0,61.4,30.05,SW,233,0.0,2.0,88,0.00,CLR,,0.00,WeatherDisplay:10.37,2013-08-03 13:10:00,
2013-08-03 23:15:00,65.0,61.4,30.05,SW,220,1.0,3.0,88,0.00,CLR,,0.00,WeatherDisplay:10.37,2013-08-03 13:15:00,
2013-08-03 23:20:00,65.0,61.3,30.05,SSW,208,0.0,3.0,88,0.00,CLR,,0.00,WeatherDisplay:10.37,2013-08-03 13:20:00,
2013-08-03 23:25:00,64.9,61.3,30.05,SSW,211,1.0,2.0,88,0.00,CLR,,0.00,WeatherDisplay:10.37,2013-08-03 13:25:00,
2013-08-03 23:30:00,64.9,61.3,30.05,SW,223,0.0,2.0,88,0.00,CLR,,0.00,WeatherDisplay:10.37,2013-08-03 13:30:00,
2013-08-03 23:35:00,64.8,61.2,30.05,SW,229,0.0,2.0,88,0.00,CLR,,0.00,WeatherDisplay:10.37,2013-08-03 13:35:00,
2013-08-03 23:40:00,64.7,61.1,30.05,SW,231,1.0,5.0,88,0.00,CLR,,0.00,WeatherDisplay:10.37,2013-08-03 13:40:00,
2013-08-03 23:50:00,64.6,61.0,30.05,SW,228,1.0,3.0,88,0.00,CLR,,0.00,WeatherDisplay:10.37,2013-08-03 13:50:00,
2013-08-03 23:54:00,64.5,60.9,30.05,SW,222,1.0,3.0,88,0.00,CLR,,0.00,WeatherDisplay:10.37,2013-08-03 13:54:00,